Main page
METAR-TAF:

METAR-TAF

Airports :

Bacon County Airport

Alma, Georgia, United States

latitude: 31-32-10N, longitude: 082-30-24W, elevation: 200 ft

Current weather observation

The report was made 33 minutes ago, at 01:53 UTC
Wind 3 mph from the South
Temperature 75°F
Humidity 100%
Pressure 30.04 in. Hg
Visibility: 10 miles
Clear sky

METAR: KAMG 190153Z AUTO 18003KT 10SM CLR 24/24 A3004 RMK AO2 SLP169 T02440239

Time: 22:26 (02:26 UTC)


TAF: missing

Weather observations and forecasts of more than 4000 airports (METAR and TAF reports).

The available stations are represented by yellow and red dots on the map.

Hover mouse over dot to see the name of the station.

Then click to see weather observations and forecasts.

To change the map : click on the green buttons with a black cross to zoom in, on the green button with a dash to zoom out, or on the green arrows for adjacent maps.


METAR-TAF: